createdAt,value
2023-03-25T00:00:09.594Z,9.69
2023-03-25T00:01:09.602Z,9.66
2023-03-25T00:02:09.643Z,9.64
2023-03-25T00:03:09.613Z,9.62
2023-03-25T00:04:09.581Z,9.68
2023-03-25T00:05:09.581Z,9.69
2023-03-25T00:06:09.599Z,9.74
2023-03-25T00:07:09.923Z,9.65
2023-03-25T00:08:09.566Z,9.68
2023-03-25T00:09:09.564Z,9.64
2023-03-25T00:10:09.559Z,9.68
2023-03-25T00:11:09.574Z,9.68
2023-03-25T00:12:09.560Z,9.72
2023-03-25T00:13:09.567Z,9.68
2023-03-25T00:14:09.548Z,9.73
2023-03-25T00:15:09.551Z,9.72
2023-03-25T00:16:09.556Z,9.72
2023-03-25T00:17:09.540Z,9.69
2023-03-25T00:18:09.530Z,9.79
2023-03-25T00:19:09.532Z,9.76
2023-03-25T00:20:09.536Z,9.77
2023-03-25T00:21:09.519Z,9.80
2023-03-25T00:22:09.554Z,9.80
2023-03-25T00:23:09.514Z,9.76
2023-03-25T00:24:09.512Z,9.66
2023-03-25T00:25:09.569Z,9.74
2023-03-25T00:26:09.509Z,9.76
2023-03-25T00:27:09.497Z,9.72
2023-03-25T00:28:09.505Z,9.74
2023-03-25T00:29:09.495Z,9.66
2023-03-25T00:30:09.490Z,9.74
2023-03-25T00:31:09.531Z,9.77
2023-03-25T00:32:09.482Z,9.69
2023-03-25T00:33:09.483Z,9.72
2023-03-25T00:34:09.473Z,9.68
2023-03-25T00:35:09.469Z,9.66
2023-03-25T00:36:09.510Z,9.74
2023-03-25T00:37:09.471Z,9.69
2023-03-25T00:38:09.477Z,9.79
2023-03-25T00:39:09.453Z,9.66
2023-03-25T00:40:09.455Z,9.69
2023-03-25T00:41:09.445Z,9.69
2023-03-25T00:42:09.445Z,9.73
2023-03-25T00:43:09.439Z,9.69
2023-03-25T00:44:09.436Z,9.73
2023-03-25T00:45:09.430Z,9.66
2023-03-25T00:46:09.459Z,9.74
2023-03-25T00:47:09.424Z,9.72
2023-03-25T00:48:09.451Z,9.74
2023-03-25T00:49:09.419Z,9.69
2023-03-25T00:50:09.414Z,9.66
2023-03-25T00:51:09.411Z,9.69
2023-03-25T00:52:09.411Z,9.77
2023-03-25T00:53:09.406Z,9.80
2023-03-25T00:54:09.422Z,9.76
2023-03-25T00:55:09.396Z,9.68
2023-03-25T00:56:09.396Z,9.76
2023-03-25T00:57:09.438Z,9.74
2023-03-25T00:58:09.389Z,9.82
2023-03-25T00:59:09.382Z,9.82
2023-03-25T01:00:09.379Z,9.77
2023-03-25T01:01:09.397Z,9.80
2023-03-25T01:02:09.376Z,9.76
2023-03-25T01:03:09.489Z,9.76
2023-03-25T01:04:09.366Z,9.82
2023-03-25T01:05:09.366Z,9.86
2023-03-25T01:06:09.358Z,9.82
2023-03-25T01:07:09.569Z,9.83
2023-03-25T01:08:09.349Z,9.82
2023-03-25T01:09:09.343Z,9.80
2023-03-25T01:10:09.360Z,9.79
2023-03-25T01:11:09.337Z,9.74
2023-03-25T01:12:09.337Z,9.80
2023-03-25T01:13:09.331Z,9.82
2023-03-25T01:14:09.328Z,9.83
2023-03-25T01:15:09.325Z,9.79
2023-03-25T01:16:09.381Z,9.84
2023-03-25T01:17:09.318Z,9.74
2023-03-25T01:18:09.314Z,9.80
2023-03-25T01:19:09.313Z,9.74
2023-03-25T01:20:09.322Z,9.73
2023-03-25T01:21:09.300Z,9.69
2023-03-25T01:22:09.299Z,9.66
2023-03-25T01:23:09.292Z,9.72
2023-03-25T01:24:09.294Z,9.69
2023-03-25T01:25:09.291Z,9.69
2023-03-25T01:26:09.317Z,9.62
2023-03-25T01:27:09.290Z,9.72
2023-03-25T01:28:09.276Z,9.64
2023-03-25T01:29:09.270Z,9.66
2023-03-25T01:30:09.279Z,9.69
2023-03-25T01:31:09.293Z,9.77
2023-03-25T01:32:09.269Z,9.69
2023-03-25T01:33:09.258Z,9.69
2023-03-25T01:34:09.263Z,9.80
2023-03-25T01:35:09.252Z,9.74
2023-03-25T01:36:09.309Z,9.77
2023-03-25T01:37:09.258Z,9.69
2023-03-25T01:38:09.244Z,9.69
2023-03-25T01:39:09.238Z,9.65
2023-03-25T01:40:09.238Z,9.68
2023-03-25T01:41:09.233Z,9.66
2023-03-25T01:42:09.246Z,9.68
2023-03-25T01:43:09.228Z,9.72
2023-03-25T01:44:09.222Z,9.72
2023-03-25T01:45:09.229Z,9.66
2023-03-25T01:46:09.241Z,9.77
2023-03-25T01:47:09.214Z,9.73
2023-03-25T01:48:09.210Z,9.72
2023-03-25T01:49:09.201Z,9.64
2023-03-25T01:50:09.197Z,9.74
2023-03-25T01:51:09.199Z,9.72
2023-03-25T01:52:09.194Z,9.72
2023-03-25T01:53:09.187Z,9.77
2023-03-25T01:54:09.197Z,9.73
2023-03-25T01:55:09.181Z,9.72
2023-03-25T01:56:09.179Z,9.68
2023-03-25T01:57:09.192Z,9.66
2023-03-25T01:58:09.187Z,9.68
2023-03-25T01:59:09.166Z,9.68
2023-03-25T02:00:09.164Z,9.66
2023-03-25T02:01:09.220Z,9.72
2023-03-25T02:02:09.223Z,9.72
2023-03-25T02:03:09.192Z,9.66
2023-03-25T02:04:09.148Z,9.68
2023-03-25T02:05:09.145Z,9.73
2023-03-25T02:06:09.150Z,9.68
2023-03-25T02:07:09.485Z,9.65
2023-03-25T02:08:09.276Z,9.68
2023-03-25T02:09:09.124Z,9.62
2023-03-25T02:10:09.128Z,9.64
2023-03-25T02:11:09.120Z,9.68
2023-03-25T02:12:09.148Z,9.72
2023-03-25T02:13:09.116Z,9.68
2023-03-25T02:14:09.136Z,9.66
2023-03-25T02:15:09.108Z,9.66
2023-03-25T02:16:09.160Z,9.64
2023-03-25T02:17:09.098Z,9.64
2023-03-25T02:18:09.173Z,9.64
2023-03-25T02:19:09.094Z,9.64
2023-03-25T02:20:09.097Z,9.68
2023-03-25T02:21:09.101Z,9.66
2023-03-25T02:22:09.092Z,9.69
2023-03-25T02:23:09.075Z,9.74
2023-03-25T02:24:09.076Z,9.64
2023-03-25T02:25:09.069Z,9.66
2023-03-25T02:26:09.068Z,9.66
2023-03-25T02:27:09.058Z,9.58
2023-03-25T02:28:09.058Z,9.58
2023-03-25T02:29:09.053Z,9.62
2023-03-25T02:30:09.073Z,9.61
2023-03-25T02:31:09.047Z,9.50
2023-03-25T02:32:09.113Z,9.64
2023-03-25T02:33:09.089Z,9.55
2023-03-25T02:34:09.033Z,9.59
2023-03-25T02:35:09.041Z,9.54
2023-03-25T02:36:09.077Z,9.61
2023-03-25T02:37:09.030Z,9.54
2023-03-25T02:38:09.022Z,9.58
2023-03-25T02:39:09.024Z,9.51
2023-03-25T02:40:09.022Z,9.56
2023-03-25T02:41:09.013Z,9.54
2023-03-25T02:42:09.011Z,9.56
2023-03-25T02:43:09.003Z,9.51
2023-03-25T02:44:09.011Z,9.58
2023-03-25T02:45:08.994Z,9.48
2023-03-25T02:46:09.051Z,9.48
2023-03-25T02:47:08.991Z,9.46
2023-03-25T02:48:08.983Z,9.44
2023-03-25T02:49:08.983Z,9.44
2023-03-25T02:50:08.975Z,9.56
2023-03-25T02:51:08.974Z,9.44
2023-03-25T02:52:08.972Z,9.48
2023-03-25T02:53:08.962Z,9.55
2023-03-25T02:54:08.966Z,9.41
2023-03-25T02:55:08.962Z,9.47
2023-03-25T02:56:08.972Z,9.44
2023-03-25T02:57:08.965Z,9.54
2023-03-25T02:58:08.944Z,9.46
2023-03-25T02:59:08.943Z,9.47
2023-03-25T03:00:08.939Z,9.50
2023-03-25T03:01:09.020Z,9.41
2023-03-25T03:02:09.131Z,9.47
2023-03-25T03:03:09.138Z,9.58
2023-03-25T03:04:08.932Z,9.44
2023-03-25T03:05:08.921Z,9.43
2023-03-25T03:06:08.918Z,9.43
2023-03-25T03:07:08.914Z,9.50
2023-03-25T03:08:08.907Z,9.41
2023-03-25T03:09:08.905Z,9.40
2023-03-25T03:10:08.898Z,9.54
2023-03-25T03:11:08.915Z,9.47
2023-03-25T03:12:08.890Z,9.46
2023-03-25T03:13:08.905Z,9.47
2023-03-25T03:14:08.885Z,9.47
2023-03-25T03:15:08.882Z,9.44
2023-03-25T03:16:08.876Z,9.46
2023-03-25T03:17:08.971Z,9.44
2023-03-25T03:18:08.957Z,9.47
2023-03-25T03:19:08.872Z,9.50
2023-03-25T03:20:08.868Z,9.50
2023-03-25T03:21:08.858Z,9.48
2023-03-25T03:22:08.855Z,9.46
2023-03-25T03:23:08.852Z,9.48
2023-03-25T03:24:08.846Z,9.46
2023-03-25T03:25:08.882Z,9.50
2023-03-25T03:26:08.850Z,9.54
2023-03-25T03:27:08.852Z,9.51
2023-03-25T03:28:08.830Z,9.47
2023-03-25T03:29:08.851Z,9.51
2023-03-25T03:30:08.831Z,9.48
2023-03-25T03:31:08.856Z,9.46
2023-03-25T03:32:08.847Z,9.43
2023-03-25T03:33:08.840Z,9.48
2023-03-25T03:34:09.045Z,9.55
2023-03-25T03:35:08.806Z,9.56
2023-03-25T03:36:08.830Z,9.56
2023-03-25T03:37:08.804Z,9.47
2023-03-25T03:38:08.795Z,9.55
2023-03-25T03:39:08.791Z,9.50
2023-03-25T03:40:08.785Z,9.46
2023-03-25T03:41:08.784Z,9.44
2023-03-25T03:42:08.778Z,9.46
2023-03-25T03:43:08.775Z,9.41
2023-03-25T03:44:08.776Z,9.43
2023-03-25T03:45:08.772Z,9.46
2023-03-25T03:46:08.819Z,9.48
2023-03-25T03:47:08.764Z,9.51
2023-03-25T03:48:08.831Z,9.50
2023-03-25T03:49:08.764Z,9.41
2023-03-25T03:50:08.783Z,9.51
2023-03-25T03:51:08.753Z,9.44
2023-03-25T03:52:08.842Z,9.44
2023-03-25T03:53:08.747Z,9.44
2023-03-25T03:54:08.741Z,9.39
2023-03-25T03:55:08.744Z,9.47
2023-03-25T03:56:08.761Z,9.47
2023-03-25T03:57:08.763Z,9.46
2023-03-25T03:58:08.719Z,9.44
2023-03-25T03:59:08.723Z,9.44
2023-03-25T04:00:08.717Z,9.44
2023-03-25T04:01:08.710Z,9.43
2023-03-25T04:02:08.709Z,9.43
2023-03-25T04:03:08.747Z,9.41
2023-03-25T04:04:08.785Z,9.44
2023-03-25T04:05:08.695Z,9.43
2023-03-25T04:06:08.705Z,9.43
2023-03-25T04:07:08.684Z,9.40
2023-03-25T04:08:08.682Z,9.36
2023-03-25T04:09:08.683Z,9.29
2023-03-25T04:10:08.675Z,9.29
2023-03-25T04:11:08.673Z,9.32
2023-03-25T04:12:08.913Z,9.36
2023-03-25T04:13:08.662Z,9.34
2023-03-25T04:14:08.657Z,9.36
2023-03-25T04:15:08.658Z,9.29
2023-03-25T04:16:08.686Z,9.36
2023-03-25T04:17:08.647Z,9.36
2023-03-25T04:18:08.642Z,9.28
2023-03-25T04:19:08.635Z,9.31
2023-03-25T04:20:08.639Z,9.34
2023-03-25T04:21:08.628Z,9.37
2023-03-25T04:22:08.641Z,9.26
2023-03-25T04:23:08.621Z,9.29
2023-03-25T04:24:08.617Z,9.29
2023-03-25T04:25:08.614Z,9.32
2023-03-25T04:26:08.609Z,9.32
2023-03-25T04:27:08.606Z,9.29
2023-03-25T04:28:08.600Z,9.31
2023-03-25T04:29:08.602Z,9.36
2023-03-25T04:30:08.591Z,9.36
2023-03-25T04:31:08.615Z,9.31
2023-03-25T04:32:08.585Z,9.34
2023-03-25T04:33:08.585Z,9.37
2023-03-25T04:34:08.580Z,9.31
2023-03-25T04:35:08.577Z,9.29
2023-03-25T04:36:08.605Z,9.29
2023-03-25T04:37:08.566Z,9.36
2023-03-25T04:38:08.581Z,9.31
2023-03-25T04:39:08.560Z,9.26
2023-03-25T04:40:08.554Z,9.34
2023-03-25T04:41:08.565Z,9.39
2023-03-25T04:42:08.551Z,9.37
2023-03-25T04:43:08.547Z,9.31
2023-03-25T04:44:08.548Z,9.39
2023-03-25T04:45:08.538Z,9.31
2023-03-25T04:46:08.630Z,9.37
2023-03-25T04:47:08.528Z,9.43
2023-03-25T04:48:08.525Z,9.29
2023-03-25T04:49:08.518Z,9.26
2023-03-25T04:50:08.515Z,9.32
2023-03-25T04:51:08.518Z,9.39
2023-03-25T04:52:08.506Z,9.26
2023-03-25T04:53:08.508Z,9.32
2023-03-25T04:54:08.539Z,9.37
2023-03-25T04:55:08.529Z,9.28
2023-03-25T04:56:08.503Z,9.29
2023-03-25T04:57:08.512Z,9.41
2023-03-25T04:58:08.486Z,9.36
2023-03-25T04:59:08.481Z,9.37
2023-03-25T05:00:08.496Z,9.36
2023-03-25T05:01:08.585Z,9.36
2023-03-25T05:02:08.472Z,9.34
2023-03-25T05:03:08.464Z,9.28
2023-03-25T05:04:08.468Z,9.31
2023-03-25T05:05:08.485Z,9.31
2023-03-25T05:06:08.450Z,9.31
2023-03-25T05:07:08.451Z,9.34
2023-03-25T05:08:08.442Z,9.31
2023-03-25T05:09:08.440Z,9.40
2023-03-25T05:10:08.454Z,9.31
2023-03-25T05:11:08.432Z,9.40
2023-03-25T05:12:08.786Z,9.29
2023-03-25T05:13:08.426Z,9.37
2023-03-25T05:14:08.417Z,9.37
2023-03-25T05:15:08.416Z,9.36
2023-03-25T05:16:08.440Z,9.32
2023-03-25T05:17:08.408Z,9.28
2023-03-25T05:18:08.401Z,9.25
2023-03-25T05:19:08.409Z,9.23
2023-03-25T05:20:08.393Z,9.34
2023-03-25T05:21:08.392Z,9.36
2023-03-25T05:22:08.386Z,9.34
2023-03-25T05:23:08.384Z,9.31
2023-03-25T05:24:08.489Z,9.26
2023-03-25T05:25:08.376Z,9.31
2023-03-25T05:26:08.393Z,9.21
2023-03-25T05:27:08.368Z,9.26
2023-03-25T05:28:08.363Z,9.16
2023-03-25T05:29:08.361Z,9.13
2023-03-25T05:30:08.359Z,9.06
2023-03-25T05:31:08.392Z,9.11
2023-03-25T05:32:08.442Z,9.10
2023-03-25T05:33:08.426Z,9.14
2023-03-25T05:34:08.342Z,9.06
2023-03-25T05:35:08.336Z,9.00
2023-03-25T05:36:08.371Z,8.95
2023-03-25T05:37:08.333Z,8.95
2023-03-25T05:38:08.345Z,8.97
2023-03-25T05:39:08.330Z,8.94
2023-03-25T05:40:14.975Z,8.88
2023-03-25T05:41:08.312Z,8.92
2023-03-25T05:42:08.385Z,8.91
2023-03-25T05:43:08.306Z,8.89
2023-03-25T05:44:08.302Z,8.92
2023-03-25T05:45:08.297Z,8.88
2023-03-25T05:46:08.310Z,8.95
2023-03-25T05:47:08.296Z,8.99
2023-03-25T05:48:08.346Z,8.92
2023-03-25T05:49:08.321Z,8.88
2023-03-25T05:50:08.275Z,8.91
2023-03-25T05:51:08.277Z,8.91
2023-03-25T05:52:08.266Z,8.87
2023-03-25T05:53:08.264Z,8.95
2023-03-25T05:54:08.259Z,8.92
2023-03-25T05:55:08.258Z,8.94
2023-03-25T05:56:08.252Z,8.85
2023-03-25T05:57:08.316Z,8.88
2023-03-25T05:58:08.271Z,8.87
2023-03-25T05:59:08.438Z,8.91
2023-03-25T06:00:08.236Z,8.85
2023-03-25T06:01:16.955Z,8.94
2023-03-25T06:02:08.249Z,8.88
2023-03-25T06:03:08.744Z,8.89
2023-03-25T06:04:08.267Z,8.92
2023-03-25T06:05:08.221Z,8.89
2023-03-25T06:06:08.213Z,8.89
2023-03-25T06:07:08.210Z,9.03
2023-03-25T06:08:08.213Z,8.95
2023-03-25T06:09:08.206Z,8.94
2023-03-25T06:10:08.197Z,8.94
2023-03-25T06:11:08.196Z,8.97
2023-03-25T06:12:08.390Z,8.91
2023-03-25T06:13:08.190Z,8.94
2023-03-25T06:14:08.220Z,8.95
2023-03-25T06:15:08.182Z,9.03
2023-03-25T06:16:08.270Z,8.95
2023-03-25T06:17:08.176Z,8.92
2023-03-25T06:18:08.231Z,9.04
2023-03-25T06:19:08.166Z,8.99
2023-03-25T06:20:08.158Z,9.04
2023-03-25T06:21:08.161Z,9.11
2023-03-25T06:22:08.151Z,9.10
2023-03-25T06:23:08.152Z,9.06
2023-03-25T06:24:08.141Z,9.04
2023-03-25T06:25:08.140Z,9.02
2023-03-25T06:26:08.133Z,9.00
2023-03-25T06:27:08.134Z,9.04
2023-03-25T06:28:08.125Z,9.08
2023-03-25T06:29:08.133Z,9.02
2023-03-25T06:30:08.145Z,9.00
2023-03-25T06:31:08.198Z,8.92
2023-03-25T06:32:08.108Z,8.94
2023-03-25T06:33:08.108Z,8.95
2023-03-25T06:34:08.100Z,8.92
2023-03-25T06:35:08.107Z,8.97
2023-03-25T06:36:08.142Z,8.91
2023-03-25T06:37:08.090Z,8.79
2023-03-25T06:38:08.090Z,8.91
2023-03-25T06:39:08.084Z,8.88
2023-03-25T06:40:08.086Z,8.89
2023-03-25T06:41:08.077Z,8.89
2023-03-25T06:42:08.073Z,8.85
2023-03-25T06:43:08.072Z,8.82
2023-03-25T06:44:08.062Z,8.79
2023-03-25T06:45:08.059Z,8.87
2023-03-25T06:46:08.113Z,8.91
2023-03-25T06:47:08.049Z,8.87
2023-03-25T06:48:08.049Z,8.78
2023-03-25T06:49:08.039Z,8.79
2023-03-25T06:50:08.036Z,8.79
2023-03-25T06:51:08.029Z,8.76
2023-03-25T06:52:08.029Z,8.95
2023-03-25T06:53:08.091Z,8.84
2023-03-25T06:54:08.028Z,8.82
2023-03-25T06:55:08.032Z,8.88
2023-03-25T06:56:08.015Z,8.85
2023-03-25T06:57:08.040Z,8.89
2023-03-25T06:58:08.010Z,8.87
2023-03-25T06:59:08.006Z,8.95
2023-03-25T07:00:07.997Z,8.94
2023-03-25T07:01:08.073Z,8.89
2023-03-25T07:02:08.038Z,8.88
2023-03-25T07:03:08.055Z,8.92
2023-03-25T07:04:07.982Z,8.89
2023-03-25T07:05:08.056Z,8.85
2023-03-25T07:06:07.984Z,8.91
2023-03-25T07:07:07.974Z,8.88
2023-03-25T07:08:07.969Z,8.81
2023-03-25T07:09:07.982Z,8.82
2023-03-25T07:10:07.968Z,8.92
2023-03-25T07:11:07.957Z,8.92
2023-03-25T07:12:09.266Z,8.88
2023-03-25T07:13:07.944Z,8.91
2023-03-25T07:14:07.950Z,8.91
2023-03-25T07:15:07.940Z,8.92
2023-03-25T07:16:08.032Z,8.94
2023-03-25T07:17:07.936Z,8.91
2023-03-25T07:18:08.036Z,8.92
2023-03-25T07:19:07.925Z,8.92
2023-03-25T07:20:08.636Z,8.92
2023-03-25T07:21:07.920Z,8.87
2023-03-25T07:22:07.912Z,8.92
2023-03-25T07:23:07.903Z,9.02
2023-03-25T07:24:07.902Z,9.00
2023-03-25T07:25:07.894Z,9.02
2023-03-25T07:26:07.894Z,9.06
2023-03-25T07:27:07.890Z,9.11
2023-03-25T07:28:07.890Z,9.08
2023-03-25T07:29:07.882Z,9.11
2023-03-25T07:30:07.880Z,9.10
2023-03-25T07:31:07.920Z,9.04
2023-03-25T07:32:07.868Z,9.18
2023-03-25T07:33:07.862Z,9.22
2023-03-25T07:34:07.885Z,9.21
2023-03-25T07:35:07.852Z,9.18
2023-03-25T07:36:07.902Z,9.13
2023-03-25T07:37:07.848Z,9.26
2023-03-25T07:38:07.848Z,9.19
2023-03-25T07:39:07.869Z,9.08
2023-03-25T07:40:07.834Z,9.06
2023-03-25T07:41:07.861Z,9.08
2023-03-25T07:42:07.828Z,9.10
2023-03-25T07:43:07.824Z,9.11
2023-03-25T07:44:07.822Z,9.14
2023-03-25T07:45:07.819Z,9.14
2023-03-25T07:46:07.877Z,9.18
2023-03-25T07:47:07.807Z,9.22
2023-03-25T07:48:07.813Z,9.19
2023-03-25T07:49:07.801Z,9.10
2023-03-25T07:50:07.815Z,9.21
2023-03-25T07:51:07.791Z,9.18
2023-03-25T07:52:07.789Z,9.08
2023-03-25T07:53:07.781Z,9.21
2023-03-25T07:54:07.790Z,9.18
2023-03-25T07:55:07.778Z,9.25
2023-03-25T07:56:07.785Z,9.22
2023-03-25T07:57:07.790Z,9.21
2023-03-25T07:58:07.767Z,9.21
2023-03-25T07:59:07.770Z,9.28
2023-03-25T08:00:07.760Z,9.16
2023-03-25T08:01:07.752Z,9.29
2023-03-25T08:02:07.824Z,9.25
2023-03-25T08:03:07.942Z,9.28
2023-03-25T08:04:07.770Z,9.29
2023-03-25T08:05:07.745Z,9.29
2023-03-25T08:06:07.761Z,9.29
2023-03-25T08:07:07.726Z,9.31
2023-03-25T08:08:07.772Z,9.22
2023-03-25T08:09:07.720Z,9.22
2023-03-25T08:10:07.716Z,9.32
2023-03-25T08:11:07.720Z,9.36
2023-03-25T08:12:07.703Z,9.25
2023-03-25T08:13:07.697Z,9.28
2023-03-25T08:14:07.693Z,9.25
2023-03-25T08:15:07.689Z,9.31
2023-03-25T08:16:07.715Z,9.26
2023-03-25T08:17:07.679Z,9.29
2023-03-25T08:18:07.752Z,9.25
2023-03-25T08:19:07.673Z,9.31
2023-03-25T08:20:07.668Z,9.34
2023-03-25T08:21:07.674Z,9.31
2023-03-25T08:22:07.689Z,9.40
2023-03-25T08:23:07.656Z,9.39
2023-03-25T08:24:07.659Z,9.41
2023-03-25T08:25:07.649Z,9.44
2023-03-25T08:26:07.647Z,9.43
2023-03-25T08:27:15.558Z,9.54
2023-03-25T08:28:07.633Z,9.50
2023-03-25T08:29:07.679Z,9.51
2023-03-25T08:30:07.643Z,9.48
2023-03-25T08:31:07.623Z,9.58
2023-03-25T08:32:07.639Z,9.56
2023-03-25T08:33:07.756Z,9.55
2023-03-25T08:34:07.614Z,9.58
2023-03-25T08:35:07.615Z,9.61
2023-03-25T08:36:07.626Z,9.59
2023-03-25T08:37:07.598Z,9.58
2023-03-25T08:38:07.615Z,9.66
2023-03-25T08:39:07.591Z,9.62
2023-03-25T08:40:07.595Z,9.55
2023-03-25T08:41:07.579Z,9.51
2023-03-25T08:42:07.575Z,9.59
2023-03-25T08:43:07.569Z,9.58
2023-03-25T08:44:07.568Z,9.58
2023-03-25T08:45:07.561Z,9.56
2023-03-25T08:46:07.638Z,9.61
2023-03-25T08:47:07.560Z,9.65
2023-03-25T08:48:07.589Z,9.64
2023-03-25T08:49:07.551Z,9.62
2023-03-25T08:50:07.544Z,9.72
2023-03-25T08:51:07.554Z,9.69
2023-03-25T08:52:07.541Z,9.73
2023-03-25T08:53:07.545Z,9.69
2023-03-25T08:54:07.553Z,9.77
2023-03-25T08:55:08.730Z,9.69
2023-03-25T08:56:07.521Z,9.72
2023-03-25T08:57:07.654Z,9.82
2023-03-25T08:58:07.516Z,9.69
2023-03-25T08:59:07.508Z,9.86
2023-03-25T09:00:07.505Z,9.83
2023-03-25T09:01:07.513Z,9.86
2023-03-25T09:02:07.565Z,9.92
2023-03-25T09:03:07.542Z,9.92
2023-03-25T09:04:07.541Z,9.92
2023-03-25T09:05:07.512Z,10.01
2023-03-25T09:06:07.486Z,9.92
2023-03-25T09:07:11.762Z,9.95
2023-03-25T09:08:07.481Z,10.05
2023-03-25T09:09:07.473Z,10.07
2023-03-25T09:10:07.488Z,10.10
2023-03-25T09:11:07.470Z,10.04
2023-03-25T09:12:07.460Z,10.12
2023-03-25T09:13:07.454Z,10.09
2023-03-25T09:14:07.460Z,10.09
2023-03-25T09:15:07.500Z,10.15
2023-03-25T09:16:07.468Z,10.12
2023-03-25T09:17:07.592Z,10.22
2023-03-25T09:18:07.517Z,10.05
2023-03-25T09:19:07.429Z,10.17
2023-03-25T09:20:07.426Z,10.12
2023-03-25T09:21:07.420Z,10.15
2023-03-25T09:22:07.422Z,10.10
2023-03-25T09:23:07.412Z,10.19
2023-03-25T09:24:07.415Z,10.07
2023-03-25T09:25:07.404Z,10.10
2023-03-25T09:26:07.420Z,9.94
2023-03-25T09:27:07.405Z,10.02
2023-03-25T09:28:07.494Z,10.04
2023-03-25T09:29:07.390Z,10.04
2023-03-25T09:30:07.388Z,10.07
2023-03-25T09:31:07.426Z,10.09
2023-03-25T09:32:07.372Z,10.13
2023-03-25T09:33:07.433Z,10.02
2023-03-25T09:34:07.369Z,10.09
2023-03-25T09:35:07.365Z,10.12
2023-03-25T09:36:07.370Z,10.10
2023-03-25T09:37:07.353Z,10.09
2023-03-25T09:38:07.352Z,10.16
2023-03-25T09:40:07.361Z,10.13
2023-03-25T09:41:07.340Z,10.12
2023-03-25T09:42:07.357Z,10.17
2023-03-25T09:43:07.330Z,10.16
2023-03-25T09:44:07.329Z,10.22
2023-03-25T09:45:12.020Z,10.25
2023-03-25T09:46:07.321Z,10.25
2023-03-25T09:47:07.310Z,10.19
2023-03-25T09:48:07.345Z,10.23
2023-03-25T09:49:07.311Z,10.25
2023-03-25T09:50:07.306Z,10.33
2023-03-25T09:51:07.295Z,10.26
2023-03-25T09:52:07.294Z,10.19
2023-03-25T09:53:07.482Z,10.30
2023-03-25T09:54:07.288Z,10.34
2023-03-25T09:55:07.288Z,10.22
2023-03-25T09:56:07.277Z,10.33
2023-03-25T09:57:07.354Z,10.26
2023-03-25T09:58:07.377Z,10.35
2023-03-25T09:59:07.269Z,10.20
2023-03-25T10:00:07.267Z,10.28
2023-03-25T10:01:07.301Z,10.30
2023-03-25T10:02:07.323Z,10.33
2023-03-25T10:03:07.265Z,10.25
2023-03-25T10:04:07.249Z,10.17
2023-03-25T10:05:07.243Z,10.34
2023-03-25T10:06:07.246Z,10.23
2023-03-25T10:07:07.235Z,10.19
2023-03-25T10:08:07.230Z,10.19
2023-03-25T10:09:07.235Z,10.33
2023-03-25T10:10:07.231Z,10.37
2023-03-25T10:11:07.231Z,10.22
2023-03-25T10:12:07.218Z,10.33
2023-03-25T10:13:07.226Z,10.20
2023-03-25T10:14:07.233Z,10.28
2023-03-25T10:15:07.211Z,10.23
2023-03-25T10:16:07.218Z,10.34
2023-03-25T10:17:07.404Z,10.26
2023-03-25T10:18:07.246Z,10.19
2023-03-25T10:19:07.194Z,10.25
2023-03-25T10:20:07.203Z,10.23
2023-03-25T10:21:07.186Z,10.33
2023-03-25T10:22:07.181Z,10.22
2023-03-25T10:23:07.174Z,10.30
2023-03-25T10:24:07.170Z,10.34
2023-03-25T10:25:07.175Z,10.33
2023-03-25T10:26:09.014Z,10.40
2023-03-25T10:27:07.156Z,10.41
2023-03-25T10:28:07.156Z,10.41
2023-03-25T10:29:07.151Z,10.40
2023-03-25T10:30:07.165Z,10.37
2023-03-25T10:31:07.144Z,10.38
2023-03-25T10:32:07.137Z,10.48
2023-03-25T10:33:07.169Z,10.51
2023-03-25T10:34:07.136Z,10.67
2023-03-25T10:35:07.128Z,10.67
2023-03-25T10:36:07.198Z,10.69
2023-03-25T10:37:07.117Z,10.74
2023-03-25T10:38:13.778Z,10.79
2023-03-25T10:39:07.110Z,10.78
2023-03-25T10:40:07.109Z,10.84
2023-03-25T10:41:07.103Z,10.75
2023-03-25T10:42:07.109Z,10.71
2023-03-25T10:43:07.100Z,10.74
2023-03-25T10:44:07.096Z,10.72
2023-03-25T10:45:07.090Z,10.57
2023-03-25T10:46:07.118Z,10.68
2023-03-25T10:47:07.080Z,10.67
2023-03-25T10:48:07.077Z,10.59
2023-03-25T10:49:07.073Z,10.51
2023-03-25T10:50:07.070Z,10.56
2023-03-25T10:51:07.070Z,10.48
2023-03-25T10:52:07.065Z,10.54
2023-03-25T10:53:07.182Z,10.59
2023-03-25T10:54:07.056Z,10.53
2023-03-25T10:55:07.050Z,10.67
2023-03-25T10:56:07.053Z,10.59
2023-03-25T10:57:07.092Z,10.64
2023-03-25T10:58:07.040Z,10.60
2023-03-25T10:59:07.080Z,10.68
2023-03-25T11:00:07.083Z,10.67
2023-03-25T11:01:07.083Z,10.78
2023-03-25T11:02:07.065Z,10.84
2023-03-25T11:03:07.189Z,10.94
2023-03-25T11:04:07.013Z,10.93
2023-03-25T11:05:07.010Z,10.93
2023-03-25T11:06:07.005Z,10.99
2023-03-25T11:07:07.011Z,10.99
2023-03-25T11:08:21.963Z,11.08
2023-03-25T11:09:06.992Z,10.93
2023-03-25T11:10:06.995Z,11.05
2023-03-25T11:11:06.988Z,11.05
2023-03-25T11:12:06.985Z,11.05
2023-03-25T11:13:06.983Z,11.04
2023-03-25T11:14:06.971Z,11.08
2023-03-25T11:15:06.971Z,11.00
2023-03-25T11:16:07.019Z,10.93
2023-03-25T11:17:07.036Z,10.97
2023-03-25T11:18:07.317Z,10.94
2023-03-25T11:19:06.953Z,11.02
2023-03-25T11:20:06.963Z,11.02
2023-03-25T11:21:06.954Z,11.12
2023-03-25T11:22:06.941Z,11.17
2023-03-25T11:23:06.948Z,11.26
2023-03-25T11:24:06.932Z,11.25
2023-03-25T11:25:06.933Z,11.27
2023-03-25T11:26:06.939Z,11.29
2023-03-25T11:27:06.926Z,11.25
2023-03-25T11:28:06.918Z,11.25
2023-03-25T11:29:06.927Z,11.22
2023-03-25T11:30:06.911Z,11.15
2023-03-25T11:31:06.947Z,11.15
2023-03-25T11:32:06.933Z,11.14
2023-03-25T11:33:07.372Z,11.10
2023-03-25T11:34:06.938Z,11.08
2023-03-25T11:35:06.893Z,11.10
2023-03-25T11:36:06.909Z,11.15
2023-03-25T11:37:06.897Z,11.08
2023-03-25T11:38:06.885Z,11.14
2023-03-25T11:39:06.882Z,11.12
2023-03-25T11:40:06.872Z,11.15
2023-03-25T11:41:06.875Z,11.17
2023-03-25T11:42:06.865Z,11.15
2023-03-25T11:43:06.865Z,11.17
2023-03-25T11:44:06.868Z,11.15
2023-03-25T11:45:06.857Z,11.25
2023-03-25T11:46:06.927Z,11.23
2023-03-25T11:47:06.850Z,11.30
2023-03-25T11:48:06.873Z,11.32
2023-03-25T11:49:06.846Z,11.45
2023-03-25T11:50:06.860Z,11.45
2023-03-25T11:51:06.847Z,11.55
2023-03-25T11:52:06.830Z,11.51
2023-03-25T11:53:06.829Z,11.50
2023-03-25T11:54:06.829Z,11.50
2023-03-25T11:55:06.828Z,11.45
2023-03-25T11:56:06.819Z,11.43
2023-03-25T11:57:06.862Z,11.41
2023-03-25T11:58:06.808Z,11.44
2023-03-25T11:59:06.813Z,11.41
2023-03-25T12:00:06.803Z,11.43
2023-03-25T12:01:06.801Z,11.35
2023-03-25T12:02:06.792Z,11.29
2023-03-25T12:03:06.826Z,11.15
2023-03-25T12:04:06.793Z,11.15
2023-03-25T12:05:06.782Z,11.05
2023-03-25T12:06:06.913Z,10.92
2023-03-25T12:07:06.782Z,10.93
2023-03-25T12:08:06.770Z,10.84
2023-03-25T12:09:06.775Z,10.87
2023-03-25T12:10:06.772Z,10.82
2023-03-25T12:11:06.765Z,10.84
2023-03-25T12:12:06.758Z,10.67
2023-03-25T12:13:06.753Z,10.53
2023-03-25T12:14:06.749Z,10.41
2023-03-25T12:15:06.751Z,10.44
2023-03-25T12:16:06.871Z,10.33
2023-03-25T12:17:06.746Z,10.31
2023-03-25T12:18:06.828Z,10.25
2023-03-25T12:19:06.737Z,10.33
2023-03-25T12:20:06.725Z,10.22
2023-03-25T12:21:06.725Z,10.20
2023-03-25T12:22:06.750Z,10.12
2023-03-25T12:23:06.720Z,10.26
2023-03-25T12:24:06.713Z,10.17
2023-03-25T12:25:06.706Z,10.26
2023-03-25T12:26:06.715Z,10.22
2023-03-25T12:27:06.701Z,10.23
2023-03-25T12:28:06.694Z,10.25
2023-03-25T12:29:06.697Z,10.28
2023-03-25T12:30:06.686Z,10.30
2023-03-25T12:31:06.715Z,10.22
2023-03-25T12:32:06.683Z,10.25
2023-03-25T12:33:06.697Z,10.26
2023-03-25T12:34:06.673Z,10.26
2023-03-25T12:35:06.667Z,10.31
2023-03-25T12:36:06.669Z,10.28
2023-03-25T12:37:06.662Z,10.41
2023-03-25T12:38:06.684Z,10.42
2023-03-25T12:39:06.656Z,10.51
2023-03-25T12:40:06.661Z,10.46
2023-03-25T12:41:06.655Z,10.46
2023-03-25T12:42:06.640Z,10.54
2023-03-25T12:43:06.655Z,10.49
2023-03-25T12:44:06.639Z,10.63
2023-03-25T12:45:06.630Z,10.59
2023-03-25T12:46:06.703Z,10.42
2023-03-25T12:47:06.623Z,10.53
2023-03-25T12:48:06.658Z,10.53
2023-03-25T12:49:06.615Z,10.61
2023-03-25T12:50:06.624Z,10.53
2023-03-25T12:51:06.609Z,10.51
2023-03-25T12:52:06.601Z,10.51
2023-03-25T12:53:06.625Z,10.48
2023-03-25T12:54:06.665Z,10.49
2023-03-25T12:55:06.597Z,10.56
2023-03-25T12:56:06.584Z,10.64
2023-03-25T12:57:06.641Z,10.72
2023-03-25T12:58:06.579Z,10.72
2023-03-25T12:59:06.582Z,10.67
2023-03-25T13:00:06.577Z,10.72
2023-03-25T13:01:06.662Z,10.82
2023-03-25T13:02:06.600Z,10.69
2023-03-25T13:03:06.601Z,10.76
2023-03-25T13:04:06.556Z,10.74
2023-03-25T13:05:06.553Z,10.84
2023-03-25T13:06:06.548Z,10.84
2023-03-25T13:07:06.549Z,10.76
2023-03-25T13:08:06.546Z,10.86
2023-03-25T13:09:06.542Z,10.78
2023-03-25T13:10:06.557Z,10.63
2023-03-25T13:11:06.537Z,10.67